Buckland, AK

7:40 AM AKDT on July 31, 2014 (GMT -0800)
Buckland (PABL) Elev 30 ft | 65.98 °N, 161.15 °W | Change Station

Current weather conditions updated 4 minutes ago

Overcast
Overcast
52 °F
Feels Like 52 °F
N
7
Wind Variable Wind from SE

Today is forecast to be Much Cooler than yesterday. Showers possible.

Today
High -- | Low -- °F
--% Chance of Precip.
Yesterday
High -- | Low -- °F
Precip. -- in
5:27 AM 0:11 AM
Waxing Crescent, 19% visible
Pressure 30.14 in
Visibility 10.0 miles
Clouds Overcast 3000 ft
Dew Point 48 °F
Humidity 88%
Rainfall 0.00 in
Snow Depth Not available.
UV 0 out of 12
Pollen Not available.
Air Quality Not available.
Flu Activity Not available.
METAR PABL 311536Z AUTO 13006KT 10SM OVC030 11/09 A3014 RMK AO1

More Conditions Fewer Conditions

Pressure 30.14 in
Visibility 10.0 miles
Clouds Overcast 3000 ft
Dew Point 48 °F
Humidity 88%
Rainfall 0.00 in
Snow Depth Not available.
UV 0 out of 12
Pollen Not available.
Air Quality Not available.
Flu Activity Not available.
METAR PABL 311536Z AUTO 13006KT 10SM OVC030 11/09 A3014 RMK AO1

More Conditions Fewer Conditions

10-Day Weather Forecast

Almanac

Astronomy

Jul. 31, 2014 Rise Set
Actual Time 5:27 AM AKDT 12:11 AM AKDT
Civil Twilight 3:23 AM AKDT 2:36 AM AKDT
Nautical Twilight Sun does not rise Sun does not rise
Astronomical Twilight Sun does not rise Sun does not rise
Moon 12:35 PM AKDT 11:53 PM AKDT
Length of Visible Light 23h 12m
Length of Day
18h 43m
Tomorrow will be 7m 49s shorter.
Waxing Crescent, 19% of the Moon is Illuminated
Today
Waxing Crescent
Aug 3
First Quarter
Aug 10
Full
Aug 17
Last Quarter
Aug 25
New

Today's Extremes

State Highs State Lows

Community

WunderPhotos

Upload Photos

1,739,359 photos uploaded!

Nearby

Snow Depth

Station Depth Elevation
Rocky Point 1 in 500 ft
Gobblers Knob 0 in 2030 ft
Coldfoot 0 in 1040 ft
Atigun Pass 0 in 4800 ft
Imnaviat Creek 0 in 3050 ft

Earthquake Activity

City Distance Mag. Time & Date
No recent earthquake activity has been reported nearby.
Minimum magnitude displayed is 2.5.

Coastal Water Temperatures

Place Temperature
No Stations Reporting

Nearby Weather Stations

Station Location Temp. Windchill Dew Point Humidity Wind Precip. Elev Updated Type
RAWS BUCKLAND UPLANDS AK, Buckland, AK 50 °F 45 °F 49 °F 98% SE  at  13 mph 0.00 in / hr 399 ft 7:01 AM AKDT MADIS

Show More Stations Show Fewer Stations